createdAt,value
2017-09-16T00:00:52.260Z,100521.48
2017-09-16T00:03:27.060Z,100524.75
2017-09-16T00:06:02.118Z,100521.98
2017-09-16T00:08:36.911Z,100527.22
2017-09-16T00:11:11.703Z,100530.46
2017-09-16T00:13:46.444Z,100525.33
2017-09-16T00:16:21.300Z,100527.90
2017-09-16T00:18:56.024Z,100524.02
2017-09-16T00:21:30.855Z,100516.27
2017-09-16T00:24:05.754Z,100511.98
2017-09-16T00:26:40.568Z,100519.00
2017-09-16T00:29:15.682Z,100517.28
2017-09-16T00:31:50.686Z,100511.66
2017-09-16T00:34:26.337Z,100508.67
2017-09-16T00:37:00.979Z,100508.11
2017-09-16T00:39:35.824Z,100502.39
2017-09-16T00:42:10.767Z,100503.86
2017-09-16T00:44:45.582Z,100497.15
2017-09-16T00:47:20.450Z,100494.26
2017-09-16T00:49:55.097Z,100493.34
2017-09-16T00:52:29.955Z,100494.39
2017-09-16T00:55:04.759Z,100494.52
2017-09-16T00:57:40.063Z,100494.48
2017-09-16T01:00:15.679Z,100490.42
2017-09-16T01:02:50.690Z,100493.06
2017-09-16T01:05:25.786Z,100484.34
2017-09-16T01:08:00.439Z,100475.73
2017-09-16T01:10:35.567Z,100476.56
2017-09-16T01:13:10.466Z,100480.98
2017-09-16T01:15:44.956Z,100478.67
2017-09-16T01:18:19.744Z,100474.33
2017-09-16T01:20:54.678Z,100472.38
2017-09-16T01:23:29.339Z,100476.89
2017-09-16T01:26:04.586Z,100479.83
2017-09-16T01:28:39.546Z,100480.50
2017-09-16T01:31:15.238Z,100479.45
2017-09-16T01:33:50.004Z,100480.77
2017-09-16T01:36:24.877Z,100476.78
2017-09-16T01:38:59.614Z,100478.62
2017-09-16T01:41:34.531Z,100474.09
2017-09-16T01:44:09.499Z,100473.38
2017-09-16T01:46:44.788Z,100471.59
2017-09-16T01:49:19.808Z,100473.42
2017-09-16T01:51:54.619Z,100466.78
2017-09-16T01:54:29.483Z,100466.91
2017-09-16T01:57:04.406Z,100465.48
2017-09-16T01:59:39.375Z,100464.52
2017-09-16T02:02:14.194Z,100465.92
2017-09-16T02:04:48.900Z,100472.48
2017-09-16T02:07:24.039Z,100472.64
2017-09-16T02:09:58.671Z,100471.53
2017-09-16T02:12:33.458Z,100475.72
2017-09-16T02:15:08.441Z,100467.63
2017-09-16T02:17:43.197Z,100467.92
2017-09-16T02:20:18.011Z,100463.84
2017-09-16T02:22:52.898Z,100467.19
2017-09-16T02:25:27.648Z,100458.89
2017-09-16T02:28:02.487Z,100459.52
2017-09-16T02:30:37.128Z,100463.36
2017-09-16T02:33:11.911Z,100468.04
2017-09-16T02:35:46.878Z,100465.00
2017-09-16T02:38:21.671Z,100467.45
2017-09-16T02:40:56.531Z,100473.41
2017-09-16T02:43:31.322Z,100466.46
2017-09-16T02:46:06.236Z,100467.39
2017-09-16T02:48:41.148Z,100466.19
2017-09-16T02:51:16.047Z,100463.73
2017-09-16T02:53:50.952Z,100462.27
2017-09-16T02:56:25.952Z,100464.05
2017-09-16T02:59:00.686Z,100462.10
2017-09-16T03:01:35.379Z,100464.17
2017-09-16T03:04:10.326Z,100460.20
2017-09-16T03:06:45.082Z,100464.90
2017-09-16T03:09:19.705Z,100466.60
2017-09-16T03:11:54.570Z,100464.13
2017-09-16T03:14:29.372Z,100474.22
2017-09-16T03:17:04.172Z,100469.31
2017-09-16T03:19:39.062Z,100472.84
2017-09-16T03:22:13.947Z,100470.11
2017-09-16T03:24:48.764Z,100470.11
2017-09-16T03:27:24.095Z,100469.00
2017-09-16T03:29:59.347Z,100464.88
2017-09-16T03:32:34.414Z,100455.41
2017-09-16T03:35:09.566Z,100452.90
2017-09-16T03:37:45.503Z,100452.48
2017-09-16T03:40:20.112Z,100453.48
2017-09-16T03:42:54.907Z,100453.72
2017-09-16T03:45:29.712Z,100455.27
2017-09-16T03:48:04.541Z,100457.34
2017-09-16T03:50:39.347Z,100457.14
2017-09-16T03:53:14.103Z,100461.11
2017-09-16T03:55:49.021Z,100462.02
2017-09-16T03:58:23.947Z,100456.85
2017-09-16T04:00:58.785Z,100451.54
2017-09-16T04:03:33.971Z,100454.27
2017-09-16T04:06:08.814Z,100459.95
2017-09-16T04:08:43.543Z,100453.31
2017-09-16T04:11:18.530Z,100449.33
2017-09-16T04:13:53.345Z,100456.53
2017-09-16T04:16:28.048Z,100451.89
2017-09-16T04:19:02.903Z,100455.62
2017-09-16T04:21:37.731Z,100451.09
2017-09-16T04:24:12.577Z,100449.81
2017-09-16T04:26:47.393Z,100453.36
2017-09-16T04:29:22.297Z,100451.80
2017-09-16T04:31:57.068Z,100453.83
2017-09-16T04:34:32.390Z,100451.76
2017-09-16T04:37:07.374Z,100457.87
2017-09-16T04:39:42.221Z,100450.55
2017-09-16T04:42:16.418Z,100453.09
2017-09-16T04:44:51.535Z,100454.74
2017-09-16T04:47:26.591Z,100450.97
2017-09-16T04:50:01.302Z,100452.93
2017-09-16T04:52:36.124Z,100462.77
2017-09-16T04:55:11.284Z,100461.63
2017-09-16T04:57:46.199Z,100464.73
2017-09-16T05:00:21.116Z,100465.91
2017-09-16T05:02:55.910Z,100465.22
2017-09-16T05:05:30.824Z,100472.85
2017-09-16T05:08:05.947Z,100471.20
2017-09-16T05:10:40.924Z,100474.25
2017-09-16T05:13:15.828Z,100477.52
2017-09-16T05:15:50.950Z,100482.61
2017-09-16T05:18:25.774Z,100484.75
2017-09-16T05:21:00.604Z,100479.81
2017-09-16T05:23:35.463Z,100475.25
2017-09-16T05:26:11.461Z,100479.97
2017-09-16T05:28:46.331Z,100476.98
2017-09-16T05:31:21.083Z,100477.13
2017-09-16T05:33:55.987Z,100468.63
2017-09-16T05:36:30.536Z,100477.92
2017-09-16T05:39:05.325Z,100477.30
2017-09-16T05:41:40.466Z,100486.54
2017-09-16T05:44:15.204Z,100483.78
2017-09-16T05:46:50.132Z,100485.76
2017-09-16T05:49:25.184Z,100486.81
2017-09-16T05:52:00.111Z,100488.55
2017-09-16T05:54:35.072Z,100489.17
2017-09-16T05:57:09.543Z,100491.02
2017-09-16T05:59:44.619Z,100478.03
2017-09-16T06:02:19.505Z,100488.50
2017-09-16T06:04:54.346Z,100486.19
2017-09-16T06:07:29.360Z,100483.70
2017-09-16T06:10:03.620Z,100492.73
2017-09-16T06:12:38.647Z,100492.93
2017-09-16T06:15:13.568Z,100498.78
2017-09-16T06:17:48.440Z,100495.53
2017-09-16T06:20:23.252Z,100493.95
2017-09-16T06:22:58.333Z,100496.88
2017-09-16T06:25:33.206Z,100493.08
2017-09-16T06:28:08.132Z,100493.00
2017-09-16T06:30:42.867Z,100490.77
2017-09-16T06:33:17.594Z,100495.88
2017-09-16T06:35:52.324Z,100494.01
2017-09-16T06:38:27.319Z,100486.90
2017-09-16T06:41:02.123Z,100483.22
2017-09-16T06:43:36.924Z,100487.32
2017-09-16T06:46:11.656Z,100485.38
2017-09-16T06:48:46.485Z,100489.81
2017-09-16T06:51:22.090Z,100490.80
2017-09-16T06:53:57.040Z,100498.86
2017-09-16T06:56:32.175Z,100496.30
2017-09-16T06:59:06.995Z,100505.52
2017-09-16T07:01:41.839Z,100503.02
2017-09-16T07:04:16.654Z,100504.30
2017-09-16T07:06:51.283Z,100503.70
2017-09-16T07:09:26.259Z,100502.11
2017-09-16T07:12:01.267Z,100510.11
2017-09-16T07:14:36.096Z,100501.88
2017-09-16T07:17:10.987Z,100509.27
2017-09-16T07:19:45.726Z,100511.61
2017-09-16T07:22:21.326Z,100518.97
2017-09-16T07:24:57.439Z,100525.92
2017-09-16T07:27:32.300Z,100530.14
2017-09-16T07:30:11.693Z,100526.53
2017-09-16T07:32:47.223Z,100530.44
2017-09-16T07:35:22.187Z,100525.11
2017-09-16T07:37:57.403Z,100534.77
2017-09-16T07:40:32.138Z,100531.42
2017-09-16T07:43:07.031Z,100538.49
2017-09-16T07:45:42.233Z,100537.38
2017-09-16T07:48:16.767Z,100534.67
2017-09-16T07:50:51.963Z,100540.53
2017-09-16T07:53:26.715Z,100542.52
2017-09-16T07:56:01.443Z,100549.42
2017-09-16T07:58:36.508Z,100546.25
2017-09-16T08:01:11.931Z,100550.52
2017-09-16T08:03:47.256Z,100557.62
2017-09-16T08:06:22.898Z,100549.73
2017-09-16T08:08:57.983Z,100558.64
2017-09-16T08:11:32.774Z,100558.01
2017-09-16T08:14:08.119Z,100560.34
2017-09-16T08:16:43.346Z,100564.48
2017-09-16T08:19:18.043Z,100559.28
2017-09-16T08:21:52.718Z,100565.47
2017-09-16T08:24:26.995Z,100569.15
2017-09-16T08:27:02.060Z,100571.79
2017-09-16T08:29:36.861Z,100575.15
2017-09-16T08:32:11.521Z,100577.22
2017-09-16T08:34:46.371Z,100575.55
2017-09-16T08:37:21.385Z,100586.39
2017-09-16T08:39:56.196Z,100577.55
2017-09-16T08:42:31.836Z,100580.74
2017-09-16T08:45:06.717Z,100575.53
2017-09-16T08:47:41.543Z,100573.74
2017-09-16T08:50:16.395Z,100578.54
2017-09-16T08:52:51.007Z,100572.72
2017-09-16T08:55:25.924Z,100585.26
2017-09-16T08:58:00.614Z,100577.96
2017-09-16T09:00:34.888Z,100581.27
2017-09-16T09:03:09.903Z,100583.85
2017-09-16T09:05:44.667Z,100579.61
2017-09-16T09:08:19.511Z,100582.59
2017-09-16T09:10:54.280Z,100584.95
2017-09-16T09:13:28.914Z,100586.78
2017-09-16T09:16:03.599Z,100583.19
2017-09-16T09:18:38.491Z,100578.87
2017-09-16T09:21:13.208Z,100584.58
2017-09-16T09:23:48.648Z,100586.28
2017-09-16T09:26:23.358Z,100584.27
2017-09-16T09:28:58.012Z,100592.35
2017-09-16T09:31:33.237Z,100594.59
2017-09-16T09:34:07.870Z,100594.83
2017-09-16T09:36:42.555Z,100592.89
2017-09-16T09:39:17.161Z,100593.11
2017-09-16T09:41:51.676Z,100590.41
2017-09-16T09:44:26.582Z,100594.91
2017-09-16T09:47:02.334Z,100599.64
2017-09-16T09:49:37.251Z,100591.45
2017-09-16T09:52:11.755Z,100593.45
2017-09-16T09:54:46.559Z,100609.92
2017-09-16T09:57:21.361Z,100598.36
2017-09-16T09:59:56.388Z,100601.23
2017-09-16T10:02:31.154Z,100589.80
2017-09-16T10:05:05.700Z,100594.39
2017-09-16T10:07:40.379Z,100596.34
2017-09-16T10:10:15.140Z,100595.03
2017-09-16T10:12:49.721Z,100590.69
2017-09-16T10:15:24.528Z,100594.59
2017-09-16T10:17:59.256Z,100587.13
2017-09-16T10:20:33.966Z,100587.75
2017-09-16T10:23:08.567Z,100594.28
2017-09-16T10:25:43.313Z,100598.12
2017-09-16T10:28:32.506Z,100588.16
2017-09-16T10:31:07.004Z,100597.83
2017-09-16T10:33:41.926Z,100589.63
2017-09-16T10:36:16.802Z,100594.21
2017-09-16T10:38:51.516Z,100595.22
2017-09-16T10:41:26.418Z,100600.05
2017-09-16T10:44:02.184Z,100597.59
2017-09-16T10:46:37.121Z,100597.50
2017-09-16T10:49:11.828Z,100598.05
2017-09-16T10:51:46.622Z,100600.77
2017-09-16T10:54:21.550Z,100595.94
2017-09-16T10:56:56.408Z,100601.64
2017-09-16T10:59:31.268Z,100597.31
2017-09-16T11:02:06.269Z,100595.52
2017-09-16T11:04:40.972Z,100592.45
2017-09-16T11:07:16.204Z,100600.83
2017-09-16T11:09:50.608Z,100597.11
2017-09-16T11:12:25.555Z,100594.62
2017-09-16T11:15:00.474Z,100596.59
2017-09-16T11:17:35.512Z,100605.43
2017-09-16T11:26:29.919Z,100596.02
2017-09-16T11:29:05.256Z,100599.03
2017-09-16T11:31:40.104Z,100595.67
2017-09-16T11:34:14.812Z,100599.37
2017-09-16T11:36:49.941Z,100597.69
2017-09-16T11:39:24.592Z,100597.03
2017-09-16T11:41:59.340Z,100599.29
2017-09-16T11:44:34.145Z,100604.01
2017-09-16T11:47:09.880Z,100594.16
2017-09-16T11:49:45.459Z,100597.36
2017-09-16T11:52:20.187Z,100601.41
2017-09-16T11:54:54.832Z,100599.19
2017-09-16T11:57:29.820Z,100585.60
2017-09-16T12:00:04.436Z,100584.91
2017-09-16T12:02:39.259Z,100582.01
2017-09-16T12:05:14.099Z,100587.64
2017-09-16T12:07:48.895Z,100590.88
2017-09-16T12:10:23.560Z,100583.50
2017-09-16T12:12:58.200Z,100580.02
2017-09-16T12:15:32.928Z,100586.64
2017-09-16T12:18:07.646Z,100577.13
2017-09-16T12:20:42.345Z,100585.98
2017-09-16T12:23:17.163Z,100597.95
2017-09-16T12:25:51.678Z,100584.67
2017-09-16T12:28:26.306Z,100587.27
2017-09-16T12:31:01.064Z,100587.19
2017-09-16T12:33:35.836Z,100583.36
2017-09-16T12:36:10.487Z,100585.67
2017-09-16T12:38:45.232Z,100584.88
2017-09-16T12:41:20.007Z,100593.65
2017-09-16T12:43:54.908Z,100583.14
2017-09-16T12:46:29.704Z,100585.02
2017-09-16T12:49:04.448Z,100582.52
2017-09-16T12:51:39.204Z,100585.27
2017-09-16T12:54:13.752Z,100581.98
2017-09-16T12:56:48.426Z,100585.28
2017-09-16T12:59:23.136Z,100578.73
2017-09-16T13:01:57.673Z,100583.88
2017-09-16T13:04:32.445Z,100588.60
2017-09-16T13:07:08.922Z,100585.72
2017-09-16T13:09:43.673Z,100582.17
2017-09-16T13:12:18.297Z,100582.56
2017-09-16T13:14:53.025Z,100577.38
2017-09-16T13:17:28.667Z,100574.43
2017-09-16T13:20:03.352Z,100580.92
2017-09-16T13:22:37.991Z,100579.34
2017-09-16T13:25:12.711Z,100578.42
2017-09-16T13:27:47.468Z,100584.98
2017-09-16T13:30:22.075Z,100582.16
2017-09-16T13:32:56.873Z,100578.17
2017-09-16T13:35:31.481Z,100579.66
2017-09-16T13:38:06.320Z,100582.08
2017-09-16T13:40:40.731Z,100578.55
2017-09-16T13:43:15.451Z,100579.20
2017-09-16T13:45:50.164Z,100585.03
2017-09-16T13:48:24.981Z,100578.58
2017-09-16T13:50:59.402Z,100581.50
2017-09-16T13:53:33.942Z,100575.85
2017-09-16T13:56:08.670Z,100583.81
2017-09-16T13:58:43.304Z,100581.11
2017-09-16T14:01:18.141Z,100582.11
2017-09-16T14:03:52.936Z,100578.30
2017-09-16T14:06:27.700Z,100580.69
2017-09-16T14:09:02.881Z,100592.25
2017-09-16T14:11:38.947Z,100587.80
2017-09-16T14:14:13.615Z,100592.13
2017-09-16T14:16:48.456Z,100583.46
2017-09-16T14:19:23.171Z,100585.63
2017-09-16T14:21:58.724Z,100585.75
2017-09-16T14:24:33.330Z,100582.41
2017-09-16T14:27:07.976Z,100593.21
2017-09-16T14:29:42.558Z,100586.30
2017-09-16T14:32:17.164Z,100584.19
2017-09-16T14:34:52.142Z,100589.84
2017-09-16T14:37:27.864Z,100590.25
2017-09-16T14:40:03.032Z,100583.66
2017-09-16T14:42:37.851Z,100587.39
2017-09-16T14:45:13.216Z,100594.37
2017-09-16T14:47:48.035Z,100591.82
2017-09-16T14:50:23.071Z,100590.89
2017-09-16T14:52:58.084Z,100598.66
2017-09-16T14:55:33.352Z,100594.20
2017-09-16T14:58:08.094Z,100595.48
2017-09-16T15:00:42.600Z,100592.99
2017-09-16T15:03:17.749Z,100592.83
2017-09-16T15:05:52.704Z,100596.80
2017-09-16T15:08:27.269Z,100594.36
2017-09-16T15:11:01.997Z,100589.16
2017-09-16T15:13:37.211Z,100590.23
2017-09-16T15:16:11.808Z,100591.91
2017-09-16T15:18:46.624Z,100587.13
2017-09-16T15:21:21.674Z,100582.50
2017-09-16T15:23:56.386Z,100590.39
2017-09-16T15:26:31.104Z,100587.81
2017-09-16T15:29:05.961Z,100594.19
2017-09-16T15:31:40.832Z,100588.18
2017-09-16T15:34:15.388Z,100588.75
2017-09-16T15:36:50.169Z,100587.92
2017-09-16T15:39:24.891Z,100595.41
2017-09-16T15:41:59.880Z,100599.63
2017-09-16T15:44:35.184Z,100593.78
2017-09-16T15:47:10.103Z,100602.94
2017-09-16T15:49:45.020Z,100600.59
2017-09-16T15:52:19.755Z,100600.61
2017-09-16T15:54:54.587Z,100598.22
2017-09-16T15:57:29.660Z,100604.61
2017-09-16T16:00:04.924Z,100610.47
2017-09-16T16:02:39.499Z,100605.31
2017-09-16T16:05:14.394Z,100609.93
2017-09-16T16:07:50.000Z,100618.62
2017-09-16T16:10:25.098Z,100617.36
2017-09-16T16:13:00.023Z,100621.48
2017-09-16T16:15:34.955Z,100626.27
2017-09-16T16:18:09.780Z,100622.00
2017-09-16T16:20:44.667Z,100626.69
2017-09-16T16:23:19.448Z,100628.39
2017-09-16T16:25:54.232Z,100632.84
2017-09-16T16:28:31.959Z,100634.86
2017-09-16T16:31:06.796Z,100635.23
2017-09-16T16:33:41.764Z,100632.14
2017-09-16T16:36:16.497Z,100637.16
2017-09-16T16:38:51.268Z,100633.34
2017-09-16T16:41:25.952Z,100638.80
2017-09-16T16:44:00.810Z,100643.84
2017-09-16T16:46:35.494Z,100645.59
2017-09-16T16:49:10.152Z,100643.56
2017-09-16T16:51:45.395Z,100646.06
2017-09-16T16:54:20.336Z,100647.51
2017-09-16T16:56:55.344Z,100648.34
2017-09-16T16:59:30.299Z,100643.59
2017-09-16T17:02:05.519Z,100646.48
2017-09-16T17:04:40.553Z,100654.86
2017-09-16T17:07:15.880Z,100651.13
2017-09-16T17:09:50.727Z,100654.59
2017-09-16T17:12:25.475Z,100656.78
2017-09-16T17:15:00.197Z,100661.41
2017-09-16T17:17:35.128Z,100664.03
2017-09-16T17:20:09.970Z,100661.89
2017-09-16T17:22:44.980Z,100660.20
2017-09-16T17:25:20.198Z,100668.69
2017-09-16T17:27:54.988Z,100673.77
2017-09-16T17:30:29.788Z,100673.98
2017-09-16T17:33:04.714Z,100671.33
2017-09-16T17:35:39.564Z,100685.21
2017-09-16T17:38:14.375Z,100681.11
2017-09-16T17:40:49.028Z,100678.50
2017-09-16T17:43:23.728Z,100683.12
2017-09-16T17:45:58.355Z,100685.42
2017-09-16T17:48:33.267Z,100689.89
2017-09-16T17:51:08.008Z,100689.00
2017-09-16T17:53:42.637Z,100690.41
2017-09-16T17:56:18.250Z,100689.36
2017-09-16T17:58:52.855Z,100691.84
2017-09-16T18:01:28.336Z,100694.69
2017-09-16T18:04:03.036Z,100699.00
2017-09-16T18:06:37.404Z,100701.55
2017-09-16T18:09:11.787Z,100702.80
2017-09-16T18:11:46.605Z,100693.58
2017-09-16T18:14:21.339Z,100699.09
2017-09-16T18:16:56.411Z,100703.17
2017-09-16T18:19:31.350Z,100708.41
2017-09-16T18:22:06.255Z,100702.97
2017-09-16T18:24:40.794Z,100710.92
2017-09-16T18:27:15.492Z,100710.01
2017-09-16T18:29:50.396Z,100711.80
2017-09-16T18:32:25.877Z,100712.53
2017-09-16T18:35:00.622Z,100714.29
2017-09-16T18:37:35.295Z,100714.17
2017-09-16T18:40:10.034Z,100718.91
2017-09-16T18:42:45.559Z,100719.05
2017-09-16T18:45:20.581Z,100717.28
2017-09-16T18:47:55.408Z,100718.70
2017-09-16T18:50:30.032Z,100723.83
2017-09-16T18:53:04.647Z,100722.50
2017-09-16T18:55:39.508Z,100728.25
2017-09-16T18:58:14.432Z,100728.17
2017-09-16T19:00:49.453Z,100733.07
2017-09-16T19:03:24.272Z,100737.27
2017-09-16T19:05:59.332Z,100729.63
2017-09-16T19:08:34.259Z,100732.91
2017-09-16T19:11:09.008Z,100743.69
2017-09-16T19:13:44.106Z,100737.81
2017-09-16T19:16:18.830Z,100740.28
2017-09-16T19:18:53.568Z,100740.51
2017-09-16T19:21:28.224Z,100740.27
2017-09-16T19:24:02.739Z,100740.27
2017-09-16T19:26:37.410Z,100741.48
2017-09-16T19:29:11.935Z,100741.73
2017-09-16T19:31:46.434Z,100742.68
2017-09-16T19:34:21.310Z,100741.70
2017-09-16T19:36:56.062Z,100752.69
2017-09-16T19:39:31.603Z,100752.61
2017-09-16T19:42:06.546Z,100753.66
2017-09-16T19:44:41.360Z,100750.77
2017-09-16T19:47:16.201Z,100754.05
2017-09-16T19:49:50.935Z,100763.98
2017-09-16T19:52:25.757Z,100760.72
2017-09-16T19:55:00.332Z,100764.09
2017-09-16T19:57:35.429Z,100760.16
2017-09-16T20:00:09.500Z,100775.33
2017-09-16T20:02:44.694Z,100773.30
2017-09-16T20:05:19.578Z,100771.56
2017-09-16T20:07:54.585Z,100777.28
2017-09-16T20:10:29.500Z,100771.28
2017-09-16T20:13:04.487Z,100767.55
2017-09-16T20:15:38.928Z,100775.70
2017-09-16T20:18:14.010Z,100772.33
2017-09-16T20:20:48.926Z,100774.20
2017-09-16T20:23:23.723Z,100771.14
2017-09-16T20:25:58.593Z,100775.25
2017-09-16T20:28:33.317Z,100779.59
2017-09-16T20:31:08.352Z,100778.69
2017-09-16T20:33:43.036Z,100778.56
2017-09-16T20:36:17.800Z,100773.91
2017-09-16T20:38:52.518Z,100768.63
2017-09-16T20:41:27.342Z,100780.42
2017-09-16T20:44:02.163Z,100774.12
2017-09-16T20:46:37.290Z,100780.28
2017-09-16T20:49:11.986Z,100778.25
2017-09-16T20:51:46.671Z,100778.33
2017-09-16T20:54:21.268Z,100769.17
2017-09-16T20:56:56.211Z,100765.97
2017-09-16T20:59:31.327Z,100762.52
2017-09-16T21:02:06.545Z,100765.83
2017-09-16T21:04:41.587Z,100770.09
2017-09-16T21:07:16.262Z,100770.53
2017-09-16T21:09:50.968Z,100771.55
2017-09-16T21:12:25.574Z,100776.52
2017-09-16T21:15:00.457Z,100772.50
2017-09-16T21:17:35.256Z,100777.84
2017-09-16T21:20:10.244Z,100780.50
2017-09-16T21:22:45.240Z,100782.75
2017-09-16T21:25:20.052Z,100792.48
2017-09-16T21:27:54.974Z,100793.82
2017-09-16T21:30:29.310Z,100791.55
2017-09-16T21:33:04.304Z,100791.17
2017-09-16T21:35:38.910Z,100789.50
2017-09-16T21:38:13.347Z,100794.80
2017-09-16T21:40:48.443Z,100797.59
2017-09-16T21:43:23.191Z,100800.02
2017-09-16T21:45:57.997Z,100801.27
2017-09-16T21:48:32.647Z,100800.50
2017-09-16T21:51:07.559Z,100796.63
2017-09-16T21:53:42.248Z,100797.64
2017-09-16T21:56:17.158Z,100803.63
2017-09-16T21:58:51.955Z,100807.01
2017-09-16T22:01:26.667Z,100809.83
2017-09-16T22:04:01.931Z,100809.75
2017-09-16T22:06:36.627Z,100810.55
2017-09-16T22:09:11.568Z,100809.34
2017-09-16T22:11:46.244Z,100807.03
2017-09-16T22:14:21.679Z,100802.78
2017-09-16T22:16:56.492Z,100811.88
2017-09-16T22:19:30.911Z,100810.30
2017-09-16T22:22:05.731Z,100818.00
2017-09-16T22:24:41.452Z,100816.80
2017-09-16T22:27:16.653Z,100815.61
2017-09-16T22:29:51.447Z,100813.05
2017-09-16T22:32:27.055Z,100810.48
2017-09-16T22:35:02.078Z,100812.94
2017-09-16T22:37:36.809Z,100806.63
2017-09-16T22:40:11.525Z,100813.88
2017-09-16T22:42:46.331Z,100811.28
2017-09-16T22:45:21.067Z,100819.00
2017-09-16T22:47:55.995Z,100812.22
2017-09-16T22:50:30.804Z,100819.38
2017-09-16T22:53:05.622Z,100816.80
2017-09-16T22:55:40.603Z,100811.78
2017-09-16T22:58:15.433Z,100813.73
2017-09-16T23:00:50.800Z,100822.12
2017-09-16T23:03:25.786Z,100819.33
2017-09-16T23:06:01.761Z,100825.45
2017-09-16T23:08:36.799Z,100816.86
2017-09-16T23:11:11.703Z,100816.19
2017-09-16T23:13:46.631Z,100820.72
2017-09-16T23:16:21.844Z,100823.61
2017-09-16T23:18:56.563Z,100826.47
2017-09-16T23:21:31.796Z,100826.22
2017-09-16T23:24:06.704Z,100822.20
2017-09-16T23:26:41.451Z,100817.89
2017-09-16T23:29:16.207Z,100816.37
2017-09-16T23:31:51.294Z,100812.86
2017-09-16T23:34:26.145Z,100823.08
2017-09-16T23:37:00.878Z,100818.91
2017-09-16T23:39:35.892Z,100820.19
2017-09-16T23:42:10.733Z,100815.19
2017-09-16T23:44:45.418Z,100820.13
2017-09-16T23:47:20.628Z,100818.70
2017-09-16T23:49:55.552Z,100820.49
2017-09-16T23:52:30.425Z,100817.28
2017-09-16T23:55:05.163Z,100811.80
2017-09-16T23:57:40.219Z,100808.80
